Latest Weather Observations for St Kilda Harbour RMYS

IDV60901

Issued at 2:21 pm EST Thursday 25 April 2024 (issued every 10 minutes, with the page automatically refreshed every 10 minutes)

About weather observations | Map of Melbourne area stations | Latest observations for Melbourne area | Other Formats
Station Details ID: 086220 Name: ST KILDA HARBOUR - RMYS Lat: -37.86 Lon: 144.96 Height: 6.4 m
Data from the previous 72 hours. | See also: Recent months at St Kilda Harbour RMYS
Date/Time
EST
Temp
°C
App
Temp
°C
Dew
Point
°C
Rel
Hum
%
Delta-T
°C
Wind Press
QNH
hPa
Press
MSL
hPa
Rain since
9am
mm
Dir  Spd
km/h
Gust
km/h
Spd
kts
Gust
kts
25/02:00pm - - - - - SW 19 24 10 13 - - -
25/01:30pm - - - - - SW 22 32 12 17 - - -
25/01:00pm - - - - - SW 37 52 20 28 - - -
25/12:58pm - - - - - SW 32 52 17 28 - - -
25/12:30pm - - - - - SW 30 33 16 18 - - -
25/12:00pm - - - - - WSW 33 39 18 21 - - -
25/11:30am - - - - - WSW 30 39 16 21 - - -
25/11:00am - - - - - WSW 35 41 19 22 - - -
25/10:30am - - - - - WSW 32 39 17 21 - - -
25/10:00am - - - - - WSW 35 44 19 24 - - -
25/09:30am - - - - - WSW 37 44 20 24 - - -
25/09:00am - - - - - WSW 33 41 18 22 - - -
25/08:30am - - - - - W 24 33 13 18 - - -
25/08:00am - - - - - W 24 32 13 17 - - -
25/07:30am - - - - - W 20 28 11 15 - - -
25/07:00am - - - - - W 22 30 12 16 - - -
25/06:30am - - - - - W 26 35 14 19 - - -
25/06:00am - - - - - W 30 35 16 19 - - -
25/05:30am - - - - - W 26 33 14 18 - - -
25/05:00am - - - - - W 24 30 13 16 - - -
25/04:30am - - - - - W 28 33 15 18 - - -
25/04:00am - - - - - W 24 28 13 15 - - -
25/03:30am - - - - - W 20 28 11 15 - - -
25/03:00am - - - - - WNW 22 30 12 16 - - -
25/02:30am - - - - - WNW 20 24 11 13 - - -
25/02:00am - - - - - NW 17 22 9 12 - - -
25/01:30am - - - - - NW 19 22 10 12 - - -
25/01:00am - - - - - NW 15 20 8 11 - - -
25/12:30am - - - - - NW 15 20 8 11 - - -
25/12:00am - - - - - NW 15 19 8 10 - - -
 
Date/Time
EST
Temp
°C
App
Temp
°C
Dew
Point
°C
Rel
Hum
%
Delta-T
°C
Wind Press
QNH
hPa
Press
MSL
hPa
Rain since
9am
mm
Dir  Spd
km/h
Gust
km/h
Spd
kts
Gust
kts
24/11:30pm - - - - - WNW 17 22 9 12 - - -
24/11:00pm - - - - - W 22 30 12 16 - - -
24/10:30pm - - - - - W 24 30 13 16 - - -
24/10:00pm - - - - - W 22 28 12 15 - - -
24/09:30pm - - - - - W 26 33 14 18 - - -
24/09:00pm - - - - - WSW 33 41 18 22 - - -
24/08:30pm - - - - - WSW 28 33 15 18 - - -
24/08:00pm - - - - - WSW 30 37 16 20 - - -
24/07:30pm - - - - - WSW 35 43 19 23 - - -
24/07:00pm - - - - - WSW 37 46 20 25 - - -
24/06:30pm - - - - - WSW 39 44 21 24 - - -
24/06:00pm - - - - - WSW 39 46 21 25 - - -
24/05:54pm - - - - - WSW 37 46 20 25 - - -
24/05:30pm - - - - - SW 28 32 15 17 - - -
24/05:00pm - - - - - SSW 30 35 16 19 - - -
24/04:30pm - - - - - SW 26 35 14 19 - - -
24/04:12pm - - - - - SSW 30 50 16 27 - - -
24/04:00pm - - - - - SSW 30 37 16 20 - - -
24/03:30pm - - - - - SSW 35 43 19 23 - - -
24/03:00pm - - - - - SW 22 30 12 16 - - -
24/02:30pm - - - - - SW 26 33 14 18 - - -
24/02:00pm - - - - - SW 32 37 17 20 - - -
24/01:30pm - - - - - SW 37 44 20 24 - - -
24/01:00pm - - - - - SW 30 35 16 19 - - -
24/12:32pm - - - - - SW 39 61 21 33 - - -
24/12:30pm - - - - - WSW 35 54 19 29 - - -
24/12:00pm - - - - - SW 33 41 18 22 - - -
24/11:30am - - - - - SW 37 46 20 25 - - -
24/11:00am - - - - - SW 33 39 18 21 - - -
24/10:30am - - - - - WSW 37 44 20 24 - - -
24/10:00am - - - - - WSW 22 28 12 15 - - -
24/09:30am - - - - - WSW 22 28 12 15 - - -
24/09:00am - - - - - WSW 28 33 15 18 - - -
24/08:30am - - - - - WSW 28 35 15 19 - - -
24/08:00am - - - - - WSW 39 52 21 28 - - -
24/07:37am - - - - - WSW 39 50 21 27 - - -
24/07:30am - - - - - SW 43 52 23 28 - - -
24/07:00am - - - - - SW 48 61 26 33 - - -
24/06:50am - - - - - SW 56 69 30 37 - - -
24/06:41am - - - - - WSW 43 65 23 35 - - -
24/06:30am - - - - - W 33 41 18 22 - - -
24/06:00am - - - - - WSW 39 46 21 25 - - -
24/05:30am - - - - - WSW 43 54 23 29 - - -
24/05:16am - - - - - W 32 54 17 29 - - -
24/05:00am - - - - - W 30 37 16 20 - - -
24/04:30am - - - - - W 30 37 16 20 - - -
24/04:00am - - - - - W 32 43 17 23 - - -
24/03:30am - - - - - W 33 43 18 23 - - -
24/03:00am - - - - - W 28 35 15 19 - - -
24/02:30am - - - - - W 32 39 17 21 - - -
24/02:00am - - - - - WNW 35 44 19 24 - - -
24/01:30am - - - - - W 33 41 18 22 - - -
24/01:00am - - - - - W 28 39 15 21 - - -
24/12:30am - - - - - W 39 46 21 25 - - -
24/12:08am - - - - - W 52 72 28 39 - - -
24/12:00am - - - - - W 57 72 31 39 - - -
 
Date/Time
EST
Temp
°C
App
Temp
°C
Dew
Point
°C
Rel
Hum
%
Delta-T
°C
Wind Press
QNH
hPa
Press
MSL
hPa
Rain since
9am
mm
Dir  Spd
km/h
Gust
km/h
Spd
kts
Gust
kts
23/11:30pm - - - - - W 54 74 29 40 - - -
23/11:21pm - - - - - W 52 70 28 38 - - -
23/11:01pm - - - - - W 43 72 23 39 - - -
23/11:00pm - - - - - W 41 70 22 38 - - -
23/10:59pm - - - - - W 39 70 21 38 - - -
23/10:30pm - - - - - W 37 46 20 25 - - -
23/10:00pm - - - - - WSW 39 50 21 27 - - -
23/09:30pm - - - - - WSW 32 39 17 21 - - -
23/09:03pm - - - - - WNW 30 44 16 24 - - -
23/09:00pm - - - - - NW 26 39 14 21 - - -
23/08:30pm - - - - - N 24 37 13 20 - - -
23/08:00pm - - - - - NNE 26 35 14 19 - - -
23/07:30pm - - - - - NNE 26 39 14 21 - - -
23/07:00pm - - - - - NNE 22 32 12 17 - - -
23/06:30pm - - - - - NNE 19 26 10 14 - - -
23/06:00pm - - - - - NNE 19 24 10 13 - - -
23/05:30pm - - - - - NNE 20 26 11 14 - - -
23/05:00pm - - - - - N 19 28 10 15 - - -
23/04:30pm - - - - - N 19 30 10 16 - - -
23/04:00pm - - - - - N 26 39 14 21 - - -
23/03:30pm - - - - - N 22 33 12 18 - - -
23/03:00pm - - - - - N 30 43 16 23 - - -
23/02:30pm - - - - - NNW 32 46 17 25 - - -
23/02:00pm - - - - - N 26 41 14 22 - - -
23/01:30pm - - - - - N 24 44 13 24 - - -
23/01:00pm - - - - - N 19 33 10 18 - - -
23/12:30pm - - - - - N 22 33 12 18 - - -
23/12:00pm - - - - - N 22 33 12 18 - - -
23/11:30am - - - - - N 24 37 13 20 - - -
23/11:04am - - - - - N 30 48 16 26 - - -
23/11:00am - - - - - N 28 41 15 22 - - -
23/10:30am - - - - - N 33 46 18 25 - - -
23/10:00am - - - - - NNW 28 41 15 22 - - -
23/09:30am - - - - - N 26 41 14 22 - - -
23/09:25am - - - - - N 24 41 13 22 - - -
23/09:00am - - - - - N 6 17 3 9 - - -
23/08:30am - - - - - NNE 9 17 5 9 - - -
23/08:00am - - - - - NNE 13 20 7 11 - - -
23/07:30am - - - - - N 20 32 11 17 - - -
23/07:00am - - - - - N 19 33 10 18 - - -
23/06:30am - - - - - N 19 28 10 15 - - -
23/06:00am - - - - - N 13 20 7 11 - - -
23/05:30am - - - - - ENE 6 9 3 5 - - -
23/05:00am - - - - - NE 7 11 4 6 - - -
23/04:30am - - - - - NE 6 7 3 4 - - -
23/04:00am - - - - - NE 13 19 7 10 - - -
23/03:30am - - - - - NE 13 19 7 10 - - -
23/03:00am - - - - - NE 15 22 8 12 - - -
23/02:30am - - - - - NNE 15 20 8 11 - - -
23/02:00am - - - - - NNE 11 17 6 9 - - -
23/01:30am - - - - - NE 13 19 7 10 - - -
23/01:00am - - - - - NNE 13 17 7 9 - - -
23/12:30am - - - - - NNE 11 15 6 8 - - -
23/12:00am - - - - - NNE 11 13 6 7 - - -
 
Date/Time
EST
Temp
°C
App
Temp
°C
Dew
Point
°C
Rel
Hum
%
Delta-T
°C
Wind Press
QNH
hPa
Press
MSL
hPa
Rain since
9am
mm
Dir  Spd
km/h
Gust
km/h
Spd
kts
Gust
kts
22/11:30pm - - - - - NNE 13 17 7 9 - - -
22/11:00pm - - - - - NNE 11 15 6 8 - - -
22/10:30pm - - - - - NNE 13 17 7 9 - - -
22/10:00pm - - - - - NNE 13 19 7 10 - - -
22/09:30pm - - - - - NNE 11 17 6 9 - - -
22/09:00pm - - - - - NNE 9 13 5 7 - - -
22/08:30pm - - - - - NNE 11 15 6 8 - - -
22/08:00pm - - - - - NNE 13 19 7 10 - - -
22/07:30pm - - - - - NNE 13 19 7 10 - - -
22/07:00pm - - - - - NNE 9 13 5 7 - - -
22/06:30pm - - - - - WNW 4 6 2 3 - - -
22/06:00pm - - - - - WNW 6 9 3 5 - - -
22/05:30pm - - - - - NNE 11 17 6 9 - - -
22/05:00pm - - - - - NNE 13 19 7 10 - - -
22/04:30pm - - - - - WNW 4 7 2 4 - - -
22/04:00pm - - - - - SSW 9 15 5 8 - - -
22/03:30pm - - - - - N 19 26 10 14 - - -
22/03:00pm - - - - - NNE 19 28 10 15 - - -
22/02:30pm - - - - - WSW 6 11 3 6 - - -

Latest Capital City Observations: Canberra | Sydney | Melbourne | Brisbane | Adelaide | Perth | Hobart | Darwin

Other formats

Comma delimited format used in spreadsheet applications
http://www.bom.gov.au/fwo/IDV60901/IDV60901.95864.axf

JavaScript Object Notation format (JSON) in row-major order
http://www.bom.gov.au/fwo/IDV60901/IDV60901.95864.json

Data quality

Most of these data are generated automatically and are frequently updated. Quality checks on data are not normally performed. It is possible for incorrect values to appear. Refer to information at About Latest Weather Observations and please check the disclaimer before using these data.